Time;durP1;ratioP1;P1;durP2;ratioP2;P2;SDS_P1;SDS_P2;PMS_P1;PMS_P2;Temp;Humidity;BMP_temperature;BMP_pressure;BME280_temperature;BME280_humidity;BME280_pressure;Samples;Min_cycle;Max_cycle;Signal;HPM_P1;HPM_P2
2023/03/11 00:01:26;;;;;;;;;1.00;1.00;;;;;21.56;31.96;100217.88;5075332;27;67323;-75
2023/03/11 00:03:52;;;;;;;;;1.75;1.00;;;;;21.57;32.33;100216.94;5076490;28;48467;-75
2023/03/11 00:06:17;;;;;;;;;2.50;1.00;;;;;21.52;31.83;100212.97;5075786;28;64096;-75
2023/03/11 00:08:42;;;;;;;;;2.50;1.50;;;;;21.54;32.30;100233.16;5078946;27;45221;-75
2023/03/11 00:11:08;;;;;;;;;3.00;1.00;;;;;21.56;32.05;100238.34;5079395;27;69146;-75
2023/03/11 00:13:35;;;;;;;;;1.00;1.00;;;;;21.53;32.15;100233.28;5078225;28;70670;-75
2023/03/11 00:16:01;;;;;;;;;3.25;1.00;;;;;21.54;32.29;100242.97;5073519;27;45757;-75
2023/03/11 00:18:29;;;;;;;;;2.50;1.50;;;;;21.53;31.86;100250.13;5071363;28;45326;-75
2023/03/11 00:20:55;;;;;;;;;1.00;1.00;;;;;21.51;32.22;100246.69;5077880;28;45567;-75
2023/03/11 00:23:20;;;;;;;;;2.00;1.00;;;;;21.52;31.99;100245.75;5070120;27;47150;-75
2023/03/11 00:25:46;;;;;;;;;1.25;1.25;;;;;21.52;32.42;100244.91;5071901;28;57811;-75
2023/03/11 00:28:12;;;;;;;;;1.00;1.00;;;;;21.48;31.73;100224.81;5064948;27;45434;-75
2023/03/11 00:30:39;;;;;;;;;5.75;2.00;;;;;21.48;31.77;100208.84;5093797;27;45560;-75
2023/03/11 00:33:05;;;;;;;;;2.00;2.00;;;;;21.49;31.84;100207.88;5079024;27;46572;-75
2023/03/11 00:35:31;;;;;;;;;2.00;2.00;;;;;21.49;32.26;100207.88;5075847;27;45732;-75
2023/03/11 00:37:59;;;;;;;;;1.00;1.00;;;;;21.47;31.80;100204.50;5077102;27;45512;-75
2023/03/11 00:40:26;;;;;;;;;2.00;2.00;;;;;21.45;32.31;100217.06;5072232;27;45512;-75
2023/03/11 00:42:52;;;;;;;;;2.25;2.25;;;;;21.42;31.92;100207.50;5052945;27;47165;-75
2023/03/11 00:45:17;;;;;;;;;2.00;2.00;;;;;21.47;31.84;100231.97;5078035;27;45231;-74
2023/03/11 00:47:44;;;;;;;;;6.75;3.00;;;;;21.45;32.09;100233.88;5079965;27;45150;-76
2023/03/11 00:50:19;;;;;;;;;4.00;3.00;;;;;21.45;31.88;100233.03;5069934;27;45316;-77
2023/03/11 00:52:46;;;;;;;;;3.00;3.00;;;;;21.41;32.29;100213.81;5078633;27;47452;-76
2023/03/11 00:55:14;;;;;;;;;4.00;4.00;;;;;21.44;32.29;100197.56;5071462;27;45304;-76
2023/03/11 00:57:39;;;;;;;;;4.75;4.00;;;;;21.40;32.15;100186.31;5071185;28;45474;-76
2023/03/11 01:00:10;;;;;;;;;5.50;4.75;;;;;21.38;32.06;100190.91;5066342;28;59716;-76
2023/03/11 01:02:35;;;;;;;;;6.25;5.00;;;;;21.41;31.80;100211.13;5079255;28;46875;-76
2023/03/11 01:05:00;;;;;;;;;5.00;3.00;;;;;21.38;32.05;100209.56;5063224;28;62113;-76
2023/03/11 01:07:26;;;;;;;;;4.25;4.00;;;;;21.41;31.82;100229.78;5077636;27;63598;-76
2023/03/11 01:09:51;;;;;;;;;2.00;2.00;;;;;21.41;31.98;100235.09;5074866;27;73360;-76
2023/03/11 01:12:16;;;;;;;;;4.75;3.50;;;;;21.41;32.28;100253.72;5072829;27;66036;-76
2023/03/11 01:14:42;;;;;;;;;4.00;3.00;;;;;21.34;32.18;100240.06;5075251;27;45410;-76
2023/03/11 01:17:08;;;;;;;;;2.75;2.75;;;;;21.35;31.95;100230.25;5074022;28;45633;-76
2023/03/11 01:19:33;;;;;;;;;4.25;4.00;;;;;21.36;31.77;100222.16;5065665;28;71638;-76
2023/03/11 01:21:58;;;;;;;;;2.00;2.00;;;;;21.37;32.16;100204.34;5075266;27;45388;-76
2023/03/11 01:24:23;;;;;;;;;5.25;4.00;;;;;21.33;32.09;100200.25;5078408;28;56883;-76
2023/03/11 01:26:49;;;;;;;;;2.75;2.75;;;;;21.35;32.13;100220.44;5079685;27;66405;-76
2023/03/11 01:29:14;;;;;;;;;3.00;2.25;;;;;21.36;32.09;100224.81;5078675;27;67087;-76
2023/03/11 01:31:39;;;;;;;;;3.75;3.00;;;;;21.34;31.78;100217.94;5076178;27;72197;-75
2023/03/11 01:34:05;;;;;;;;;5.50;2.50;;;;;21.28;31.94;100210.41;5065821;27;75115;-76
2023/03/11 01:36:30;;;;;;;;;2.00;2.00;;;;;21.31;32.19;100212.84;5069464;27;67970;-76
2023/03/11 01:38:55;;;;;;;;;3.75;2.00;;;;;21.33;32.06;100219.72;5062261;28;45304;-76
2023/03/11 01:41:21;;;;;;;;;1.25;1.00;;;;;21.33;31.52;100226.88;5072759;28;60507;-76
2023/03/11 01:43:50;;;;;;;;;2.50;1.00;;;;;21.30;31.74;100227.97;5069310;27;45263;-76
2023/03/11 01:46:23;;;;;;;;;3.25;2.00;;;;;21.32;31.57;100225.16;5076972;27;45530;-76
2023/03/11 01:48:54;;;;;;;;;2.00;1.75;;;;;21.31;31.83;100232.31;5054884;28;45400;-76
2023/03/11 01:51:31;;;;;;;;;2.00;2.00;;;;;21.30;31.85;100213.81;5070318;28;46132;-76
2023/03/11 01:53:59;;;;;;;;;2.25;1.00;;;;;21.28;32.11;100215.75;5063593;28;45516;-76
2023/03/11 01:56:24;;;;;;;;;2.00;1.25;;;;;21.29;31.96;100223.63;5072284;28;45284;-76
2023/03/11 01:58:51;;;;;;;;;3.00;2.00;;;;;21.28;31.95;100229.06;5065364;28;45646;-75
2023/03/11 02:01:18;;;;;;;;;1.75;1.75;;;;;21.26;32.01;100236.31;5075192;28;45991;-76
2023/03/11 02:03:44;;;;;;;;;2.00;1.25;;;;;21.27;31.70;100240.69;5075964;27;45922;-76
2023/03/11 02:06:12;;;;;;;;;2.75;1.00;;;;;21.28;31.92;100243.19;5073834;28;59883;-76
2023/03/11 02:08:37;;;;;;;;;2.00;2.00;;;;;21.27;31.62;100243.34;5066630;28;46283;-77
2023/03/11 02:11:05;;;;;;;;;2.50;1.75;;;;;21.24;31.84;100241.75;5078754;28;46073;-76
2023/03/11 02:13:33;;;;;;;;;2.25;1.25;;;;;21.24;32.14;100245.25;5078114;27;45251;-76
2023/03/11 02:15:59;;;;;;;;;2.00;1.00;;;;;21.26;31.51;100249.63;5074125;28;45374;-76
2023/03/11 02:18:24;;;;;;;;;2.25;0.50;;;;;21.24;31.49;100255.06;5072917;28;45517;-76
2023/03/11 02:20:55;;;;;;;;;2.75;1.00;;;;;21.26;31.75;100257.63;5046239;28;48713;-76
2023/03/11 02:23:24;;;;;;;;;1.00;1.00;;;;;21.24;31.75;100250.59;5056393;28;45420;-76
2023/03/11 02:25:57;;;;;;;;;1.25;1.25;;;;;21.23;31.73;100248.91;5070757;27;45508;-76
2023/03/11 02:28:23;;;;;;;;;1.75;1.75;;;;;21.22;32.06;100238.38;5054937;28;45323;-76
2023/03/11 02:30:49;;;;;;;;;1.00;1.00;;;;;21.22;31.88;100241.03;5078835;27;45970;-76
2023/03/11 02:33:15;;;;;;;;;1.50;1.50;;;;;21.24;31.54;100247.91;5072609;28;67433;-76
2023/03/11 02:35:41;;;;;;;;;1.50;1.50;;;;;21.21;32.03;100255.31;5076748;28;45344;-76
2023/03/11 02:38:06;;;;;;;;;1.25;1.25;;;;;21.23;32.07;100253.38;5070156;27;62231;-76
2023/03/11 02:40:47;;;;;;;;;1.75;1.00;;;;;21.23;31.63;100243.59;5070707;28;52614;-76
2023/03/11 02:43:15;;;;;;;;;3.00;1.75;;;;;21.22;31.99;100230.41;5066925;28;45509;-76
2023/03/11 02:45:42;;;;;;;;;2.75;1.00;;;;;21.17;31.68;100212.13;5083986;27;45265;-76
2023/03/11 02:48:09;;;;;;;;;1.25;1.00;;;;;21.18;32.07;100197.88;5076540;28;45340;-75
2023/03/11 02:50:36;;;;;;;;;1.00;1.00;;;;;21.20;31.75;100205.72;5074801;27;52332;-76
2023/03/11 02:53:02;;;;;;;;;3.00;1.00;;;;;21.15;31.80;100202.59;5077712;27;45346;-76
2023/03/11 02:55:27;;;;;;;;;1.00;1.00;;;;;21.16;31.72;100210.44;5065552;28;45319;-76
2023/03/11 02:57:53;;;;;;;;;1.00;1.00;;;;;21.18;31.77;100213.00;5084377;27;73164;-76
2023/03/11 03:00:18;;;;;;;;;1.00;1.00;;;;;21.19;31.92;100210.19;5072955;28;64985;-76
2023/03/11 03:02:44;;;;;;;;;2.00;2.00;;;;;21.17;32.00;100213.94;5078938;28;45398;-76
2023/03/11 03:05:10;;;;;;;;;1.00;1.00;;;;;21.17;31.86;100224.59;5080901;27;45392;-76
2023/03/11 03:07:36;;;;;;;;;1.00;1.00;;;;;21.18;32.05;100226.28;5083582;27;45497;-76
2023/03/11 03:10:03;;;;;;;;;3.00;1.00;;;;;21.16;31.68;100220.22;5058625;27;48322;-76
2023/03/11 03:12:28;;;;;;;;;2.50;1.00;;;;;21.16;31.60;100229.06;5077537;28;45271;-76
2023/03/11 03:14:53;;;;;;;;;1.00;1.00;;;;;21.15;31.69;100223.88;5065379;27;68283;-76
2023/03/11 03:17:19;;;;;;;;;1.25;1.00;;;;;21.14;31.74;100214.19;5078544;27;59811;-76
2023/03/11 03:19:44;;;;;;;;;1.00;1.00;;;;;21.15;31.58;100207.91;5065539;27;45349;-76
2023/03/11 03:22:09;;;;;;;;;1.75;1.00;;;;;21.12;32.03;100224.94;5064488;28;66505;-76
2023/03/11 03:24:35;;;;;;;;;1.00;1.00;;;;;21.15;31.87;100213.22;5077177;27;64292;-76
2023/03/11 03:27:00;;;;;;;;;3.00;1.00;;;;;21.14;32.00;100207.06;5077765;27;67401;-76
2023/03/11 03:29:25;;;;;;;;;0.75;0.50;;;;;21.11;31.96;100191.34;5070164;28;75405;-76
2023/03/11 03:31:51;;;;;;;;;1.00;1.00;;;;;21.10;31.75;100178.16;5074709;28;75042;-76
2023/03/11 03:34:16;;;;;;;;;2.00;1.00;;;;;21.11;31.63;100195.81;5074333;28;63803;-76
2023/03/11 03:36:41;;;;;;;;;1.00;1.00;;;;;21.14;31.89;100206.19;5072692;27;73263;-76
2023/03/11 03:39:07;;;;;;;;;1.25;1.00;;;;;21.13;31.51;100194.72;5070464;28;72726;-76
2023/03/11 03:41:32;;;;;;;;;2.00;0.25;;;;;21.12;31.74;100192.19;5074149;27;61569;-76
2023/03/11 03:43:57;;;;;;;;;1.25;0.75;;;;;21.11;31.44;100188.69;5074605;27;45354;-76
2023/03/11 03:46:23;;;;;;;;;2.25;1.00;;;;;21.10;31.88;100194.13;5060785;28;45400;-76
2023/03/11 03:48:48;;;;;;;;;1.50;1.00;;;;;21.08;31.49;100202.22;5078660;27;45599;-76
2023/03/11 03:51:14;;;;;;;;;1.00;1.00;;;;;21.10;31.83;100204.75;5077671;28;57297;-76
2023/03/11 03:53:40;;;;;;;;;1.00;1.00;;;;;21.10;31.54;100207.44;5079678;27;45303;-76
2023/03/11 03:56:10;;;;;;;;;1.75;1.25;;;;;21.07;31.45;100203.22;5084204;27;45515;-76
2023/03/11 03:58:35;;;;;;;;;1.75;1.00;;;;;21.07;31.89;100205.00;5077046;28;46430;-76
2023/03/11 04:01:01;;;;;;;;;0.50;0.25;;;;;21.09;31.80;100221.69;5074067;27;62015;-76
2023/03/11 04:03:27;;;;;;;;;0.50;0.00;;;;;21.08;31.68;100228.00;5080016;27;45934;-76
2023/03/11 04:05:52;;;;;;;;;1.00;1.00;;;;;21.06;31.67;100217.47;5071231;28;45305;-76
2023/03/11 04:08:18;;;;;;;;;1.00;1.00;;;;;21.05;32.00;100213.97;5073745;27;64980;-76
2023/03/11 04:10:44;;;;;;;;;1.75;0.50;;;;;21.08;31.61;100233.31;5074330;27;45476;-76
2023/03/11 04:13:09;;;;;;;;;1.25;1.00;;;;;21.05;31.52;100231.72;5074973;27;45444;-76
2023/03/11 04:15:37;;;;;;;;;1.25;1.00;;;;;21.02;31.83;100224.84;5060472;28;45348;-76
2023/03/11 04:18:02;;;;;;;;;2.50;0.50;;;;;21.05;31.81;100226.41;5068284;28;46233;-76
2023/03/11 04:20:28;;;;;;;;;1.00;1.00;;;;;21.01;31.80;100212.50;5068681;28;45300;-76
2023/03/11 04:22:53;;;;;;;;;1.25;1.25;;;;;21.05;32.03;100215.75;5074631;27;45441;-76
2023/03/11 04:25:18;;;;;;;;;1.75;1.00;;;;;21.02;31.88;100218.69;5089176;27;70242;-76
2023/03/11 04:27:45;;;;;;;;;2.00;2.00;;;;;21.04;31.70;100206.09;5078555;27;65229;-76
2023/03/11 04:30:11;;;;;;;;;1.75;1.75;;;;;21.03;31.62;100207.94;5075163;27;45415;-76
2023/03/11 04:32:36;;;;;;;;;2.75;2.00;;;;;21.01;31.55;100220.47;5070311;27;45458;-76
2023/03/11 04:35:02;;;;;;;;;1.00;1.00;;;;;20.97;32.03;100221.69;5072990;28;49984;-76
2023/03/11 04:37:28;;;;;;;;;0.75;0.75;;;;;21.00;31.92;100223.25;5073883;27;45390;-76
2023/03/11 04:39:53;;;;;;;;;3.00;1.00;;;;;20.99;31.42;100230.41;5060268;27;45451;-77
2023/03/11 04:42:19;;;;;;;;;2.75;2.25;;;;;21.00;31.62;100231.25;5066860;27;45406;-76
2023/03/11 04:44:44;;;;;;;;;3.00;2.00;;;;;20.99;31.54;100235.72;5073678;28;45319;-76
2023/03/11 04:47:09;;;;;;;;;1.00;1.00;;;;;20.96;31.92;100232.44;5075817;27;67185;-76
2023/03/11 04:49:35;;;;;;;;;2.00;2.00;;;;;20.99;31.87;100242.88;5077453;28;45449;-76
2023/03/11 04:52:00;;;;;;;;;1.00;1.00;;;;;20.97;31.89;100245.63;5075099;27;45271;-76
2023/03/11 04:54:25;;;;;;;;;3.00;2.00;;;;;20.97;31.54;100248.28;5073600;27;66786;-76
2023/03/11 04:56:51;;;;;;;;;1.25;1.00;;;;;20.97;31.80;100237.66;5065711;28;67591;-76
2023/03/11 04:59:16;;;;;;;;;1.00;1.00;;;;;20.92;31.85;100231.84;5078576;27;70580;-76
2023/03/11 05:01:41;;;;;;;;;1.00;1.00;;;;;20.93;32.18;100238.00;5079883;27;65688;-76
2023/03/11 05:04:07;;;;;;;;;1.25;1.00;;;;;20.92;31.98;100253.13;5078821;27;55956;-76
2023/03/11 05:06:32;;;;;;;;;1.00;1.00;;;;;20.96;31.55;100256.41;5081286;27;45251;-76
2023/03/11 05:08:57;;;;;;;;;3.50;1.00;;;;;20.94;31.65;100251.19;5078184;27;45577;-76
2023/03/11 05:11:23;;;;;;;;;5.50;1.75;;;;;20.92;32.31;100239.00;5071735;28;45452;-76
2023/03/11 05:13:48;;;;;;;;;1.00;0.50;;;;;20.93;31.59;100252.19;5068746;27;45323;-77
2023/03/11 05:16:14;;;;;;;;;1.50;1.50;;;;;20.95;31.80;100258.22;5076694;28;66138;-76
2023/03/11 05:18:39;;;;;;;;;1.00;1.00;;;;;20.95;31.73;100260.88;5075270;27;45308;-76
2023/03/11 05:21:04;;;;;;;;;1.25;1.25;;;;;20.96;31.77;100267.03;5067736;27;48813;-77
2023/03/11 05:23:30;;;;;;;;;0.50;0.50;;;;;20.96;32.13;100267.88;5073039;27;63806;-76
2023/03/11 05:25:55;;;;;;;;;1.00;1.00;;;;;21.00;31.92;100269.34;5071107;28;75512;-76
2023/03/11 05:28:20;;;;;;;;;0.25;0.25;;;;;21.01;32.05;100255.06;5068605;28;45447;-77
2023/03/11 05:30:46;;;;;;;;;0.25;0.25;;;;;21.03;32.15;100255.81;5071051;28;48868;-77
2023/03/11 05:33:11;;;;;;;;;1.75;1.00;;;;;21.02;31.74;100256.78;5071640;27;64371;-76
2023/03/11 05:35:37;;;;;;;;;0.75;0.75;;;;;21.08;32.03;100257.25;5066429;28;46093;-77
2023/03/11 05:38:02;;;;;;;;;1.00;1.00;;;;;21.11;31.79;100262.34;5073603;27;45503;-76
2023/03/11 05:40:27;;;;;;;;;2.25;1.00;;;;;21.11;32.16;100271.16;5066201;28;45306;-76
2023/03/11 05:42:53;;;;;;;;;0.00;0.00;;;;;21.13;32.11;100277.22;5066479;28;64837;-76
2023/03/11 05:45:18;;;;;;;;;1.00;0.50;;;;;21.14;31.95;100273.59;5069365;28;63926;-76
2023/03/11 05:47:43;;;;;;;;;0.00;0.00;;;;;21.13;32.13;100284.34;5068605;27;66360;-76
2023/03/11 05:50:11;;;;;;;;;3.25;1.00;;;;;21.14;31.87;100296.66;5074993;27;45605;-76
2023/03/11 05:52:36;;;;;;;;;1.75;1.00;;;;;21.18;31.62;100306.13;5077909;27;45331;-76
2023/03/11 05:55:02;;;;;;;;;1.00;1.00;;;;;21.17;31.84;100302.59;5073863;28;46009;-76
2023/03/11 05:57:27;;;;;;;;;0.00;0.00;;;;;21.18;32.00;100293.66;5074678;27;45274;-76
2023/03/11 05:59:53;;;;;;;;;2.00;0.00;;;;;21.10;31.72;100280.09;5066070;28;45438;-76
2023/03/11 06:02:19;;;;;;;;;0.00;0.00;;;;;21.17;32.03;100283.13;5074107;27;52154;-76
2023/03/11 06:04:45;;;;;;;;;1.00;1.00;;;;;21.20;31.99;100281.06;5066360;27;45552;-76
2023/03/11 06:07:11;;;;;;;;;0.75;0.75;;;;;21.19;32.27;100276.72;5070868;28;45417;-76
2023/03/11 06:09:37;;;;;;;;;0.75;0.75;;;;;21.20;31.54;100288.22;5074178;27;45315;-76
2023/03/11 06:12:04;;;;;;;;;0.50;0.50;;;;;21.20;31.88;100302.38;5079311;28;45354;-76
2023/03/11 06:14:30;;;;;;;;;1.00;1.00;;;;;21.17;31.79;100307.09;5068097;28;46125;-76
2023/03/11 06:16:56;;;;;;;;;0.25;0.25;;;;;21.17;31.57;100296.44;5073278;27;45742;-76
2023/03/11 06:19:22;;;;;;;;;0.00;0.00;;;;;21.16;31.86;100292.94;5073420;27;45314;-76
2023/03/11 06:21:47;;;;;;;;;1.00;1.00;;;;;21.19;31.46;100282.03;5079374;28;45197;-76
2023/03/11 06:24:12;;;;;;;;;0.00;0.00;;;;;21.17;31.52;100289.28;5079908;27;70214;-76
2023/03/11 06:26:38;;;;;;;;;0.00;0.00;;;;;21.18;32.00;100298.97;5084529;27;72052;-76
2023/03/11 06:29:03;;;;;;;;;1.00;1.00;;;;;21.19;32.15;100299.81;5079427;27;45220;-76
2023/03/11 06:31:29;;;;;;;;;0.00;0.00;;;;;21.19;32.07;100290.00;5067438;28;45301;-76
2023/03/11 06:33:54;;;;;;;;;0.75;0.75;;;;;21.16;31.69;100279.63;5065680;28;45996;-76
2023/03/11 06:36:20;;;;;;;;;2.00;0.00;;;;;21.18;31.62;100290.16;5059661;27;45227;-76
2023/03/11 06:38:47;;;;;;;;;0.50;0.50;;;;;21.17;31.75;100302.59;5072776;27;45330;-76
2023/03/11 06:41:12;;;;;;;;;0.00;0.00;;;;;21.17;31.48;100304.41;5064128;28;45388;-76
2023/03/11 06:43:37;;;;;;;;;1.00;0.50;;;;;21.16;31.48;100305.38;5079198;27;45461;-76
2023/03/11 06:46:17;;;;;;;;;2.50;0.00;;;;;21.14;31.77;100297.53;5071109;27;45340;-76
2023/03/11 06:48:42;;;;;;;;;0.00;0.00;;;;;21.14;31.87;100305.53;5080245;27;45361;-76
2023/03/11 06:51:08;;;;;;;;;1.00;1.00;;;;;21.15;31.86;100293.91;5082829;27;45263;-76
2023/03/11 06:53:34;;;;;;;;;0.00;0.00;;;;;21.13;31.86;100287.84;5080581;27;58465;-76
2023/03/11 06:56:08;;;;;;;;;0.50;0.50;;;;;21.14;32.01;100300.19;5063404;28;72165;-76
2023/03/11 06:58:35;;;;;;;;;0.00;0.00;;;;;21.10;32.09;100295.22;5072019;28;45305;-76
2023/03/11 07:01:02;;;;;;;;;0.00;0.00;;;;;21.14;31.77;100310.84;5084652;27;45298;-76
2023/03/11 07:03:28;;;;;;;;;0.00;0.00;;;;;21.13;32.07;100305.63;5073487;27;45557;-76
2023/03/11 07:05:53;;;;;;;;;0.50;0.50;;;;;21.10;31.70;100304.03;5072446;28;45461;-76
2023/03/11 07:08:18;;;;;;;;;0.75;0.75;;;;;21.11;31.74;100324.38;5076452;28;64799;-76
2023/03/11 07:10:44;;;;;;;;;0.00;0.00;;;;;21.12;31.54;100330.53;5073686;28;65738;-76
2023/03/11 07:13:10;;;;;;;;;0.25;0.25;;;;;21.13;31.61;100343.72;5069197;28;45893;-76
2023/03/11 07:15:35;;;;;;;;;1.00;0.00;;;;;21.14;31.66;100340.13;5060837;28;45233;-76
2023/03/11 07:18:00;;;;;;;;;1.00;1.00;;;;;21.12;31.72;100338.53;5068669;28;45872;-76
2023/03/11 07:20:26;;;;;;;;;2.50;1.00;;;;;21.17;31.78;100337.19;5065295;28;67353;-76
2023/03/11 07:22:51;;;;;;;;;0.25;0.25;;;;;21.20;31.68;100341.44;5068145;27;58976;-76
2023/03/11 07:25:17;;;;;;;;;0.00;0.00;;;;;21.22;32.05;100348.31;5068911;27;45238;-76
2023/03/11 07:27:42;;;;;;;;;0.00;0.00;;;;;21.22;31.73;100350.16;5074934;27;56241;-76
2023/03/11 07:30:08;;;;;;;;;0.00;0.00;;;;;21.26;32.05;100353.41;5051034;28;51796;-76
2023/03/11 07:32:33;;;;;;;;;0.00;0.00;;;;;21.26;31.91;100348.09;5076926;27;46033;-76
2023/03/11 07:34:59;;;;;;;;;2.00;0.00;;;;;21.30;31.70;100360.19;5062862;28;45598;-76
2023/03/11 07:37:24;;;;;;;;;4.00;0.75;;;;;21.32;32.11;100359.13;5074970;27;69187;-76
2023/03/11 07:39:49;;;;;;;;;1.00;1.00;;;;;21.35;32.08;100363.34;5079579;28;69691;-76
2023/03/11 07:42:15;;;;;;;;;1.25;0.75;;;;;21.35;31.85;100363.34;5081946;27;45933;-76
2023/03/11 07:44:40;;;;;;;;;2.25;1.00;;;;;21.39;31.92;100375.47;5073164;28;59595;-76
2023/03/11 07:47:05;;;;;;;;;1.00;1.00;;;;;21.43;31.86;100376.91;5078355;27;45245;-76
2023/03/11 07:49:31;;;;;;;;;1.00;0.00;;;;;21.37;31.51;100370.25;5080200;27;45587;-76
2023/03/11 07:51:57;;;;;;;;;1.00;1.00;;;;;21.44;31.92;100370.59;5084523;27;45474;-76
2023/03/11 07:54:22;;;;;;;;;0.00;0.00;;;;;21.49;32.11;100367.63;5079893;27;45357;-76
2023/03/11 07:56:47;;;;;;;;;3.00;0.50;;;;;21.50;31.87;100366.66;5080565;28;46018;-76
2023/03/11 07:59:13;;;;;;;;;2.00;0.00;;;;;21.52;31.81;100357.56;5086370;27;45433;-76
2023/03/11 08:01:40;;;;;;;;;2.00;0.00;;;;;21.48;32.29;100347.28;5084408;27;45409;-76
2023/03/11 08:04:07;;;;;;;;;0.50;0.50;;;;;21.57;31.76;100357.22;5072407;28;45423;-76
2023/03/11 08:06:34;;;;;;;;;0.00;0.00;;;;;21.56;31.75;100369.66;5075659;27;45236;-76
2023/03/11 08:09:02;;;;;;;;;3.00;1.00;;;;;21.60;31.63;100389.78;5075189;27;45691;-76
2023/03/11 08:11:27;;;;;;;;;2.00;0.00;;;;;21.62;32.12;100389.66;5075338;27;47909;-76
2023/03/11 08:13:53;;;;;;;;;2.00;0.00;;;;;21.60;31.70;100397.78;5073635;28;45361;-76
2023/03/11 08:16:20;;;;;;;;;0.50;0.50;;;;;21.63;31.72;100387.84;5082063;27;56123;-77
2023/03/11 08:18:46;;;;;;;;;0.25;0.00;;;;;21.66;31.79;100392.94;5081211;28;45464;-76
2023/03/11 08:21:13;;;;;;;;;0.50;0.00;;;;;21.67;31.72;100400.75;5074642;27;46192;-76
2023/03/11 08:23:39;;;;;;;;;1.00;0.00;;;;;21.72;32.07;100395.09;5066926;27;45630;-76
2023/03/11 08:26:05;;;;;;;;;1.25;0.50;;;;;21.69;31.99;100390.88;5075375;27;45615;-75
2023/03/11 08:28:31;;;;;;;;;2.50;0.50;;;;;21.72;31.99;100393.25;5067539;28;46083;-76
2023/03/11 08:30:56;;;;;;;;;1.00;1.00;;;;;21.69;32.23;100377.56;5071472;27;45373;-76
2023/03/11 08:33:22;;;;;;;;;0.00;0.00;;;;;21.74;31.67;100386.03;5064984;27;46410;-76
2023/03/11 08:35:47;;;;;;;;;1.50;0.00;;;;;21.80;31.78;100387.34;5072416;27;45777;-76
2023/03/11 08:38:12;;;;;;;;;0.25;0.00;;;;;21.78;31.66;100381.31;5072011;27;72103;-76
2023/03/11 08:40:38;;;;;;;;;1.50;0.75;;;;;21.80;31.55;100384.69;5066732;28;75447;-76
2023/03/11 08:43:03;;;;;;;;;0.25;0.00;;;;;21.81;31.87;100375.69;5078845;27;56992;-76
2023/03/11 08:45:28;;;;;;;;;0.00;0.00;;;;;21.84;31.78;100367.47;5089778;27;50203;-76
2023/03/11 08:47:54;;;;;;;;;2.25;1.00;;;;;21.85;32.09;100374.50;5074829;27;47626;-76
2023/03/11 08:50:19;;;;;;;;;0.50;0.50;;;;;21.91;31.88;100386.47;5079387;28;46153;-76
2023/03/11 08:52:45;;;;;;;;;0.00;0.00;;;;;21.90;31.91;100393.63;5077284;28;45296;-76
2023/03/11 08:55:16;;;;;;;;;1.75;1.00;;;;;21.92;32.10;100402.34;5080563;27;45375;-76
2023/03/11 08:57:41;;;;;;;;;2.00;2.00;;;;;21.94;32.08;100402.22;5052129;28;45376;-76
2023/03/11 09:00:08;;;;;;;;;2.75;2.75;;;;;21.91;31.94;100383.81;5057808;28;64296;-76
2023/03/11 09:02:33;;;;;;;;;1.00;1.00;;;;;21.95;32.01;100395.91;5078521;28;45744;-76
2023/03/11 09:04:58;;;;;;;;;2.00;1.00;;;;;21.96;31.85;100400.28;5077025;28;45564;-76
2023/03/11 09:07:24;;;;;;;;;0.75;0.75;;;;;21.96;31.39;100397.63;5073582;27;50800;-76
2023/03/11 09:09:49;;;;;;;;;2.00;2.00;;;;;21.99;31.74;100395.56;5068307;28;45411;-76
2023/03/11 09:12:15;;;;;;;;;1.00;1.00;;;;;21.98;31.93;100393.84;5073104;27;45413;-76
2023/03/11 09:14:41;;;;;;;;;1.00;1.00;;;;;22.04;31.80;100397.84;5075181;28;45425;-76
2023/03/11 09:17:07;;;;;;;;;0.75;0.75;;;;;22.02;32.12;100383.78;5073449;28;45600;-76
2023/03/11 09:19:32;;;;;;;;;0.00;0.00;;;;;22.04;31.87;100392.50;5075220;27;46974;-76
2023/03/11 09:22:02;;;;;;;;;1.00;1.00;;;;;22.09;31.46;100395.66;5078927;27;45285;-76
2023/03/11 09:24:27;;;;;;;;;1.50;1.00;;;;;22.11;32.07;100399.03;5066680;28;45665;-76
2023/03/11 09:26:53;;;;;;;;;1.75;1.00;;;;;22.08;31.88;100387.78;5062571;28;45854;-76
2023/03/11 09:29:18;;;;;;;;;1.00;1.00;;;;;22.10;31.61;100394.69;5065201;27;46938;-76
2023/03/11 09:31:44;;;;;;;;;1.00;1.00;;;;;22.13;31.72;100402.44;5074894;28;70008;-76
2023/03/11 09:34:11;;;;;;;;;0.50;0.50;;;;;22.14;31.30;100406.78;5071377;28;45383;-76
2023/03/11 09:36:36;;;;;;;;;0.25;0.25;;;;;22.13;31.92;100393.56;5071253;27;45424;-76
2023/03/11 09:39:01;;;;;;;;;2.00;1.00;;;;;22.14;31.76;100395.28;5067870;27;69643;-76
2023/03/11 09:41:48;;;;;;;;;1.75;1.75;;;;;22.20;31.64;100402.75;5076910;27;71289;-76
2023/03/11 09:44:27;;;;;;;;;1.00;1.00;;;;;22.17;31.85;100397.72;5070177;28;45401;-76
2023/03/11 09:46:58;;;;;;;;;1.25;1.00;;;;;22.22;31.84;100392.81;5073332;27;45490;-76
2023/03/11 09:49:23;;;;;;;;;1.00;0.75;;;;;22.22;31.53;100394.66;5056918;28;47220;-76
2023/03/11 09:52:06;;;;;;;;;0.33;0.33;;;;;22.23;31.44;100405.19;5084345;27;45442;-76
2023/03/11 09:54:37;;;;;;;;;0.00;0.00;;;;;22.24;31.64;100401.56;5087711;27;45307;-76
2023/03/11 09:57:03;;;;;;;;;1.00;1.00;;;;;22.25;31.96;100400.56;5053910;28;45562;-76
2023/03/11 09:59:32;;;;;;;;;0.50;0.50;;;;;22.26;31.59;100402.28;5051507;28;46920;-76
2023/03/11 10:01:58;;;;;;;;;2.00;1.00;;;;;22.21;31.92;100396.47;5078476;27;45262;-76
2023/03/11 10:04:41;;;;;;;;;0.00;0.00;;;;;22.30;31.58;100402.91;5079720;28;45398;-76
2023/03/11 10:07:20;;;;;;;;;2.75;1.00;;;;;22.30;31.91;100414.41;5059831;28;45823;-76
2023/03/11 10:09:52;;;;;;;;;1.00;1.00;;;;;22.29;31.75;100414.53;5077806;27;47880;-76
2023/03/11 10:12:18;;;;;;;;;0.50;0.25;;;;;22.33;31.47;100416.84;5076737;27;45248;-76
2023/03/11 10:15:14;;;;;;;;;0.50;0.25;;;;;22.33;31.67;100419.50;5080323;27;46298;-76
2023/03/11 10:17:55;;;;;;;;;0.00;0.00;;;;;22.34;31.43;100429.19;5067077;28;45272;-76
2023/03/11 10:20:21;;;;;;;;;0.50;0.50;;;;;22.34;31.79;100426.50;5067615;28;47581;-76
2023/03/11 10:23:01;;;;;;;;;3.00;1.25;;;;;22.34;31.29;100433.66;5060429;28;45434;-76
2023/03/11 10:25:31;;;;;;;;;2.00;1.00;;;;;22.34;31.29;100429.19;5061593;28;45509;-76
2023/03/11 10:28:02;;;;;;;;;1.00;1.00;;;;;22.34;31.42;100426.50;5053501;27;45853;-76
2023/03/11 10:30:31;;;;;;;;;0.00;0.00;;;;;22.34;31.76;100423.84;5071678;28;46976;-76
2023/03/11 10:33:38;;;;;;;;;3.75;1.00;;;;;22.35;31.66;100417.56;5069513;28;45547;-76
2023/03/11 10:36:08;;;;;;;;;0.00;0.00;;;;;22.36;31.29;100418.41;5082398;27;45433;-76
2023/03/11 10:38:41;;;;;;;;;1.50;0.50;;;;;22.32;31.19;100411.63;5071837;28;45358;-76
2023/03/11 10:41:19;;;;;;;;;1.50;1.50;;;;;22.31;31.26;100418.78;5064725;28;47262;-76
2023/03/11 10:44:01;;;;;;;;;1.00;1.00;;;;;22.29;30.94;100410.06;5075047;27;45709;-76
2023/03/11 10:46:27;;;;;;;;;1.75;0.00;;;;;22.31;31.30;100415.25;5075645;28;45380;-76
2023/03/11 10:48:52;;;;;;;;;2.75;2.00;;;;;22.32;31.33;100415.13;5071706;28;45545;-76
2023/03/11 10:51:25;;;;;;;;;2.00;2.00;;;;;22.31;31.48;100424.13;5076421;27;46259;-76
2023/03/11 10:53:53;;;;;;;;;2.75;2.00;;;;;22.35;31.20;100432.72;5077237;28;45387;-76
2023/03/11 10:56:35;;;;;;;;;1.00;1.00;;;;;22.35;31.28;100417.56;5063849;28;45448;-76
2023/03/11 10:59:01;;;;;;;;;0.00;0.00;;;;;22.36;31.24;100421.06;5083439;27;45429;-76
2023/03/11 11:01:27;;;;;;;;;1.75;1.75;;;;;22.37;31.03;100420.94;5079094;27;45328;-76
2023/03/11 11:03:55;;;;;;;;;0.50;0.50;;;;;22.41;31.07;100410.88;5094224;27;45280;-76
2023/03/11 11:06:22;;;;;;;;;2.50;1.00;;;;;22.42;31.32;100420.56;5057083;28;45447;-75
2023/03/11 11:08:48;;;;;;;;;1.00;1.00;;;;;22.44;31.36;100420.44;5083676;27;45518;-75
2023/03/11 11:11:22;;;;;;;;;1.25;1.25;;;;;22.42;31.47;100419.72;5077858;28;45379;-75
2023/03/11 11:13:58;;;;;;;;;2.00;1.00;;;;;22.44;31.55;100417.78;5078245;28;45275;-75
2023/03/11 11:16:23;;;;;;;;;1.75;1.00;;;;;22.46;31.35;100408.66;5077697;27;45279;-75
2023/03/11 11:18:52;;;;;;;;;1.00;0.00;;;;;22.45;31.17;100407.00;5079139;27;45526;-76
2023/03/11 11:21:32;;;;;;;;;1.00;1.00;;;;;22.49;31.01;100413.75;5077556;27;47675;-75
2023/03/11 11:24:06;;;;;;;;;0.75;0.00;;;;;22.47;31.24;100413.03;5080017;27;45356;-75